createdAt,value
2022-11-15T00:06:05.160Z,5.10
2022-11-15T00:16:45.869Z,5.00
2022-11-15T00:27:28.456Z,5.00
2022-11-15T00:38:09.246Z,4.90
2022-11-15T00:48:51.678Z,4.80
2022-11-15T00:59:32.058Z,4.80
2022-11-15T01:10:14.050Z,4.50
2022-11-15T01:20:54.608Z,4.50
2022-11-15T01:31:36.651Z,4.30
2022-11-15T01:42:17.432Z,4.20
2022-11-15T01:52:59.180Z,4.20
2022-11-15T02:03:44.983Z,4.20
2022-11-15T02:14:29.621Z,4.30
2022-11-15T02:25:29.703Z,4.50
2022-11-15T02:36:17.102Z,4.40
2022-11-15T02:47:15.652Z,4.30
2022-11-15T02:58:24.675Z,4.30
2022-11-15T03:09:11.255Z,4.10
2022-11-15T03:19:57.009Z,4.20
2022-11-15T03:30:39.271Z,4.10
2022-11-15T03:41:26.442Z,4.00
2022-11-15T03:52:07.909Z,4.00
2022-11-15T04:02:49.947Z,4.00
2022-11-15T04:13:30.907Z,4.20
2022-11-15T04:24:16.237Z,4.30
2022-11-15T04:34:56.490Z,3.90
2022-11-15T04:45:38.320Z,3.80
2022-11-15T04:56:18.837Z,4.20
2022-11-15T05:17:25.089Z,4.00
2022-11-15T05:28:07.057Z,4.00
2022-11-15T05:38:50.116Z,3.90
2022-11-15T05:49:33.947Z,3.90
2022-11-15T06:00:16.549Z,3.80
2022-11-15T06:10:57.554Z,4.10
2022-11-15T06:21:39.645Z,4.10
2022-11-15T06:32:21.902Z,4.20
2022-11-15T06:43:04.975Z,4.40
2022-11-15T06:53:47.293Z,4.60
2022-11-15T07:04:28.848Z,4.80
2022-11-15T07:15:10.741Z,5.00
2022-11-15T07:25:52.639Z,5.30
2022-11-15T07:36:33.153Z,5.60
2022-11-15T07:47:15.556Z,6.10
2022-11-15T07:58:02.548Z,6.40
2022-11-15T08:08:44.754Z,6.80
2022-11-15T08:19:25.333Z,7.20
2022-11-15T08:30:08.750Z,7.60
2022-11-15T08:40:49.675Z,8.10
2022-11-15T08:51:33.960Z,8.40
2022-11-15T09:02:16.797Z,9.00
2022-11-15T09:13:02.710Z,9.80
2022-11-15T09:23:43.360Z,10.60
2022-11-15T09:34:27.741Z,11.20
2022-11-15T09:45:21.615Z,11.80
2022-11-15T09:56:12.277Z,12.10
2022-11-15T10:06:36.948Z,12.90
2022-11-15T10:17:20.855Z,13.20
2022-11-15T10:27:44.048Z,13.30
2022-11-15T10:38:13.441Z,13.60
2022-11-15T10:48:34.979Z,13.80
2022-11-15T10:59:02.048Z,14.60
2022-11-15T11:09:33.911Z,14.80
2022-11-15T11:20:04.538Z,14.10
2022-11-15T11:30:36.665Z,14.20
2022-11-15T11:41:11.014Z,14.70
2022-11-15T11:51:38.374Z,14.80
2022-11-15T12:02:11.776Z,15.70
2022-11-15T12:12:40.590Z,15.80
2022-11-15T12:23:08.102Z,16.20
2022-11-15T12:33:36.239Z,16.00
2022-11-15T12:44:01.029Z,16.10
2022-11-15T12:55:08.590Z,16.70
2022-11-15T13:05:58.805Z,16.50
2022-11-15T13:16:22.761Z,16.10
2022-11-15T13:26:46.264Z,16.00
2022-11-15T13:37:14.713Z,15.20
2022-11-15T13:47:37.567Z,15.10
2022-11-15T13:58:01.389Z,14.80
2022-11-15T14:08:26.401Z,14.60
2022-11-15T14:18:50.325Z,14.20
2022-11-15T14:29:26.177Z,14.00
2022-11-15T14:39:47.959Z,13.60
2022-11-15T14:50:14.949Z,13.20
2022-11-15T15:00:37.020Z,12.60
2022-11-15T15:11:01.536Z,12.40
2022-11-15T15:21:25.022Z,12.20
2022-11-15T15:31:49.195Z,11.80
2022-11-15T15:42:10.817Z,11.60
2022-11-15T15:52:33.537Z,11.30
2022-11-15T16:02:55.730Z,11.30
2022-11-15T16:13:18.637Z,10.90
2022-11-15T16:23:40.201Z,10.60
2022-11-15T16:34:03.048Z,10.30
2022-11-15T16:44:25.782Z,10.00
2022-11-15T16:54:49.096Z,9.80
2022-11-15T17:05:14.676Z,9.50
2022-11-15T17:15:41.231Z,9.10
2022-11-15T17:26:23.658Z,8.90
2022-11-15T17:36:49.005Z,8.80
2022-11-15T17:47:10.804Z,8.60
2022-11-15T17:57:36.649Z,8.40
2022-11-15T18:07:58.341Z,8.20
2022-11-15T18:18:26.694Z,8.00
2022-11-15T18:28:50.087Z,8.00
2022-11-15T18:39:16.469Z,7.80
2022-11-15T18:49:38.661Z,7.70
2022-11-15T19:00:01.620Z,7.50
2022-11-15T19:10:23.128Z,7.20
2022-11-15T19:20:46.273Z,7.10
2022-11-15T19:31:09.071Z,6.90
2022-11-15T19:41:32.872Z,6.90
2022-11-15T19:52:18.217Z,6.90
2022-11-15T20:03:28.084Z,6.90
2022-11-15T20:14:45.230Z,6.80
2022-11-15T20:25:33.176Z,6.80
2022-11-15T20:35:59.035Z,6.70
2022-11-15T20:46:23.520Z,6.60
2022-11-15T20:57:16.638Z,6.50
2022-11-15T21:07:40.556Z,6.50
2022-11-15T21:18:02.520Z,6.30
2022-11-15T21:28:25.624Z,6.10
2022-11-15T21:38:47.129Z,6.10
2022-11-15T21:49:10.453Z,6.00
2022-11-15T21:59:32.375Z,6.00
2022-11-15T22:09:55.895Z,5.90
2022-11-15T22:20:42.968Z,5.80
2022-11-15T22:31:01.288Z,5.80
2022-11-15T22:41:22.878Z,5.80
2022-11-15T22:51:46.335Z,5.80
2022-11-15T23:02:11.425Z,5.80
2022-11-15T23:12:51.595Z,5.80
2022-11-15T23:23:13.725Z,5.70
2022-11-15T23:33:55.191Z,5.70
2022-11-15T23:44:16.762Z,5.60
2022-11-15T23:54:39.534Z,5.50
